Greater Kankakee Airport
KIKK : now visible

Airfield :











YOU CAN JOIN US ON...

 
LOGIN :

Register | Disclaimer

   EN    FR    IT 

 









Legend :    VFR   Marginal VFR   IFR   Intensive IFR   Very Intensive IFR
Visi :
Ceiling :
>= 8 km
>= 3000ft
5 to 8 km
1000 to 3000 ft
1500m to 5 km
500 to 1000 ft
800 to 1500m
200 to 500 ft
< 800m
< 200 ft
Symbols :   Thunderstorms  Fog  Heavy snow  Heavy precipitations  Wind > 20 kt






- Airport Elevation : 630 ft


KIKK - Greater Kankakee

CURRENT METAR :
  • 192015Z AUTO 18004KT 10SM BKN050 24/12 A3017 RMK AO2 T02440122

EXPIRED METARs :
  • 191955Z AUTO 00000KT 10SM CLR 25/13 A3017 RMK AO2 T02480125
  • 191935Z AUTO 12005KT 10SM SCT048 25/13 A3017 RMK AO2 LTG DSNT W T02470130
  • 191915Z AUTO 00000KT 10SM SCT048 24/12 A3018 RMK AO2 T02390123
  • 191855Z AUTO 00000KT 10SM SCT048 24/13 A3019 RMK AO2 T02380128
  • 191835Z AUTO 34003KT 10SM BKN046 23/12 A3020 RMK AO2 T02300121
  • 191815Z AUTO 00000KT 10SM BKN048 24/13 A3020 RMK AO2 T02380128
  • 191755Z AUTO 00000KT 10SM SCT048 23/12 A3020 RMK AO2 T02310117 10237 20145
  • 191735Z AUTO 08003KT 10SM SCT046 23/12 A3021 RMK AO2 T02330116
  • 191715Z AUTO 00000KT 10SM SCT046 24/13 A3021 RMK AO2 T02370128
  • 191655Z AUTO 00000KT 10SM CLR 22/12 A3022 RMK AO2 T02180120
  • 191635Z AUTO 06003KT 10SM SCT037 22/13 A3022 RMK AO2 T02170125
  • 191615Z AUTO 05004KT 10SM SCT037 23/14 A3022 RMK AO2 T02280135
  • 191555Z AUTO 14003KT 10SM CLR 22/13 A3022 RMK AO2 T02190127
  • 191535Z AUTO 09003KT 10SM CLR 22/13 A3022 RMK AO2 T02150125

TAF N/A
KZAU FIR / North America



MET'MAP, your aeronautical weather chart ! - Copyright ORBIFLY December 2007 - Disclaimer

ORBIFLY MET'MAP TEAM :

Programming & Development : Alexandra Zaïnal
Original concept : Baudouin d'Aumeries
Technical & hardware support : Manuel Goepfert
Assistance : Marc-Olivier Méhu




SOURCES & CREDITS :

   NOAA       Earth
Advisory